createdAt,value
2023-08-17T00:01:36.647Z,99061.65
2023-08-17T00:06:40.023Z,99064.49
2023-08-17T00:11:43.931Z,99081.52
2023-08-17T00:16:47.632Z,99080.42
2023-08-17T00:21:52.116Z,99079.04
2023-08-17T00:26:55.904Z,99068.95
2023-08-17T00:32:00.999Z,99065.78
2023-08-17T00:37:04.382Z,99061.33
2023-08-17T00:42:09.434Z,99060.98
2023-08-17T00:47:12.776Z,99064.70
2023-08-17T00:52:16.113Z,99063.15
2023-08-17T00:57:21.223Z,99062.88
2023-08-17T01:02:25.057Z,99062.17
2023-08-17T01:07:28.663Z,99066.98
2023-08-17T01:12:33.019Z,99064.30
2023-08-17T01:17:45.786Z,99066.94
2023-08-17T01:22:51.903Z,99076.89
2023-08-17T01:27:55.781Z,99079.10
2023-08-17T01:33:04.211Z,99086.98
2023-08-17T01:38:14.450Z,99089.05
2023-08-17T01:43:18.645Z,99086.04
2023-08-17T01:48:21.969Z,99081.27
2023-08-17T01:53:25.187Z,99073.45
2023-08-17T01:58:29.146Z,99075.30
2023-08-17T02:03:33.456Z,99072.77
2023-08-17T02:08:38.741Z,99076.64
2023-08-17T02:13:42.078Z,99071.11
2023-08-17T02:18:45.367Z,99076.23
2023-08-17T02:23:48.553Z,99081.55
2023-08-17T02:28:51.769Z,99086.50
2023-08-17T02:33:59.435Z,99081.06
2023-08-17T02:39:04.766Z,99082.89
2023-08-17T02:44:08.368Z,99086.16
2023-08-17T02:49:12.283Z,99088.59
2023-08-17T02:54:15.582Z,99090.86
2023-08-17T02:59:18.903Z,99080.16
2023-08-17T03:04:22.176Z,99082.55
2023-08-17T03:09:25.450Z,99084.53
2023-08-17T03:14:29.360Z,99093.59
2023-08-17T03:19:32.585Z,99114.84
2023-08-17T03:24:36.035Z,99128.77
2023-08-17T03:29:40.251Z,99124.25
2023-08-17T03:34:44.177Z,99127.44
2023-08-17T03:39:47.820Z,99130.09
2023-08-17T03:44:52.112Z,99137.66
2023-08-17T03:49:55.574Z,99132.27
2023-08-17T03:54:59.358Z,99131.23
2023-08-17T04:00:03.412Z,99127.73
2023-08-17T04:05:16.992Z,99136.77
2023-08-17T04:10:20.358Z,99136.89
2023-08-17T04:15:23.866Z,99145.41
2023-08-17T04:20:27.227Z,99143.70
2023-08-17T04:25:30.556Z,99147.34
2023-08-17T04:30:34.100Z,99147.08
2023-08-17T04:35:37.997Z,99148.40
2023-08-17T04:40:41.267Z,99146.98
2023-08-17T04:45:49.000Z,99140.96
2023-08-17T04:50:52.991Z,99140.10
2023-08-17T04:55:56.837Z,99141.25
2023-08-17T05:01:01.289Z,99144.41
2023-08-17T05:06:04.864Z,99149.41
2023-08-17T05:11:10.221Z,99144.16
2023-08-17T05:16:14.366Z,99143.48
2023-08-17T05:21:18.043Z,99147.95
2023-08-17T05:26:21.331Z,99159.73
2023-08-17T05:31:24.707Z,99163.62
2023-08-17T05:36:29.209Z,99161.77
2023-08-17T05:41:32.517Z,99164.79
2023-08-17T05:46:35.820Z,99175.92
2023-08-17T05:51:39.161Z,99173.54
2023-08-17T05:56:47.938Z,99169.70
2023-08-17T06:01:51.510Z,99166.39
2023-08-17T06:06:55.081Z,99171.56
2023-08-17T06:11:58.430Z,99161.39
2023-08-17T06:17:01.795Z,99162.05
2023-08-17T06:22:05.301Z,99165.21
2023-08-17T06:27:09.381Z,99169.52
2023-08-17T06:32:12.645Z,99174.83
2023-08-17T06:37:16.737Z,99169.08
2023-08-17T06:42:19.974Z,99167.02
2023-08-17T06:47:23.379Z,99167.23
2023-08-17T06:52:26.774Z,99164.97
2023-08-17T06:57:30.368Z,99158.89
2023-08-17T07:02:50.753Z,99154.34
2023-08-17T07:07:58.541Z,99157.94
2023-08-17T07:13:04.733Z,99161.22
2023-08-17T07:18:08.116Z,99162.36
2023-08-17T07:23:12.239Z,99162.17
2023-08-17T07:28:16.855Z,99157.67
2023-08-17T07:33:20.881Z,99158.22
2023-08-17T07:38:24.740Z,99155.06
2023-08-17T07:43:28.060Z,99147.48
2023-08-17T07:48:34.984Z,99146.10
2023-08-17T07:53:38.384Z,99147.06
2023-08-17T07:58:42.196Z,99146.86
2023-08-17T08:03:45.484Z,99158.02
2023-08-17T08:08:48.766Z,99161.00
2023-08-17T08:13:53.070Z,99154.79
2023-08-17T08:18:56.845Z,99149.60
2023-08-17T08:24:00.197Z,99147.70
2023-08-17T08:29:05.612Z,99139.90
2023-08-17T08:34:08.855Z,99139.20
2023-08-17T08:39:13.812Z,99136.54
2023-08-17T08:44:17.167Z,99133.33
2023-08-17T08:49:25.634Z,99128.22
2023-08-17T08:54:30.352Z,99128.95
2023-08-17T08:59:35.576Z,99128.89
2023-08-17T09:04:38.925Z,99125.20
2023-08-17T09:09:43.074Z,99125.62
2023-08-17T09:14:46.325Z,99124.20
2023-08-17T09:19:49.658Z,99129.02
2023-08-17T09:24:53.008Z,99134.41
2023-08-17T09:30:10.878Z,99135.30
2023-08-17T09:35:14.675Z,99137.12
2023-08-17T09:40:22.401Z,99133.39
2023-08-17T09:45:27.590Z,99128.34
2023-08-17T09:50:30.831Z,99128.80
2023-08-17T09:55:37.370Z,99126.24
2023-08-17T10:00:41.449Z,99124.61
2023-08-17T10:05:46.113Z,99125.14
2023-08-17T10:10:49.864Z,99118.70
2023-08-17T10:16:30.744Z,99113.52
2023-08-17T10:22:03.858Z,99122.59
2023-08-17T10:27:07.689Z,99122.15
2023-08-17T10:32:16.706Z,99114.75
2023-08-17T10:37:22.108Z,99124.61
2023-08-17T10:42:36.600Z,99130.41
2023-08-17T10:47:39.927Z,99139.06
2023-08-17T10:57:53.097Z,99150.54
2023-08-17T11:03:03.157Z,99153.67
2023-08-17T11:08:07.369Z,99151.42
2023-08-17T11:13:10.630Z,99156.40
2023-08-17T11:18:13.883Z,99152.48
2023-08-17T11:23:19.118Z,99158.75
2023-08-17T11:28:24.254Z,99158.60
2023-08-17T11:33:28.612Z,99158.38
2023-08-17T11:38:36.270Z,99152.65
2023-08-17T11:43:39.492Z,99149.44
2023-08-17T11:48:42.797Z,99149.89
2023-08-17T11:53:49.890Z,99141.24
2023-08-17T11:58:53.350Z,99151.06
2023-08-17T12:03:56.570Z,99148.79
2023-08-17T12:09:00.637Z,99162.65
2023-08-17T12:14:13.058Z,99166.72
2023-08-17T12:19:16.407Z,99177.59
2023-08-17T12:24:21.508Z,99226.55
2023-08-17T12:29:25.554Z,99238.65
2023-08-17T12:34:28.842Z,99250.30
2023-08-17T12:39:31.996Z,99232.73
2023-08-17T12:44:35.172Z,99228.84
2023-08-17T12:49:39.601Z,99216.96
2023-08-17T12:54:43.733Z,99192.81
2023-08-17T12:59:47.004Z,99172.36
2023-08-17T13:04:50.704Z,99152.34
2023-08-17T13:09:54.154Z,99143.60
2023-08-17T13:14:58.262Z,99137.58
2023-08-17T13:20:01.944Z,99124.75
2023-08-17T13:25:05.980Z,99129.15
2023-08-17T13:30:17.203Z,99125.61
2023-08-17T13:35:21.701Z,99114.08
2023-08-17T13:40:25.062Z,99107.52
2023-08-17T13:45:28.361Z,99108.02
2023-08-17T13:50:31.548Z,99105.78
2023-08-17T13:55:34.825Z,99100.98
2023-08-17T14:00:38.860Z,99107.59
2023-08-17T14:05:42.940Z,99110.70
2023-08-17T14:10:46.189Z,99117.55
2023-08-17T14:15:49.525Z,99119.54
2023-08-17T14:20:52.964Z,99127.47
2023-08-17T14:25:56.140Z,99140.26
2023-08-17T14:30:59.389Z,99142.33
2023-08-17T14:36:02.521Z,99136.02
2023-08-17T14:41:07.978Z,99135.30
2023-08-17T14:46:15.231Z,99132.23
2023-08-17T14:51:19.088Z,99129.27
2023-08-17T14:56:23.953Z,99133.79
2023-08-17T15:01:27.187Z,99132.14
2023-08-17T15:06:34.366Z,99124.34
2023-08-17T15:11:38.298Z,99122.46
2023-08-17T15:16:41.534Z,99121.25
2023-08-17T15:21:44.718Z,99126.60
2023-08-17T15:26:47.899Z,99122.65
2023-08-17T15:31:51.748Z,99112.52
2023-08-17T15:36:55.116Z,99108.84
2023-08-17T15:41:58.295Z,99105.93
2023-08-17T15:47:02.016Z,99105.67
2023-08-17T15:52:07.743Z,99104.86
2023-08-17T15:57:12.141Z,99105.61
2023-08-17T16:02:15.353Z,99099.77
2023-08-17T16:07:18.586Z,99099.14
2023-08-17T16:12:22.023Z,99086.27
2023-08-17T16:17:25.880Z,99089.41
2023-08-17T16:22:29.420Z,99087.93
2023-08-17T16:27:32.694Z,99082.34
2023-08-17T16:32:36.182Z,99084.21
2023-08-17T16:37:40.674Z,99081.34
2023-08-17T16:42:44.339Z,99079.81
2023-08-17T16:47:47.589Z,99075.93
2023-08-17T16:52:51.523Z,99073.10
2023-08-17T16:57:57.840Z,99070.69
2023-08-17T17:03:01.656Z,99070.88
2023-08-17T17:08:05.673Z,99066.88
2023-08-17T17:13:09.080Z,99058.06
2023-08-17T17:18:12.615Z,99049.02
2023-08-17T17:23:15.989Z,99046.67
2023-08-17T17:28:19.418Z,99044.14
2023-08-17T17:33:22.817Z,99047.84
2023-08-17T17:38:26.091Z,99049.10
2023-08-17T17:43:29.288Z,99052.91
2023-08-17T17:48:34.081Z,99045.67
2023-08-17T17:53:38.023Z,99053.75
2023-08-17T17:58:41.309Z,99048.44
2023-08-17T18:03:45.289Z,99053.41
2023-08-17T18:08:48.592Z,99066.55
2023-08-17T18:13:52.792Z,99063.73
2023-08-17T18:18:56.995Z,99056.80
2023-08-17T18:24:00.618Z,99049.89
2023-08-17T18:29:04.455Z,99052.92
2023-08-17T18:34:08.455Z,99055.67
2023-08-17T18:39:12.071Z,99060.14
2023-08-17T18:44:15.292Z,99104.36
2023-08-17T18:49:18.633Z,99108.08
2023-08-17T18:54:21.896Z,99120.25
2023-08-17T18:59:25.326Z,99114.06
2023-08-17T19:04:28.507Z,99117.27
2023-08-17T19:09:32.645Z,99100.96
2023-08-17T19:14:35.847Z,99096.34
2023-08-17T19:19:39.432Z,99089.95
2023-08-17T19:24:43.261Z,99103.23
2023-08-17T19:29:47.356Z,99098.48
2023-08-17T19:34:50.633Z,99100.77
2023-08-17T19:39:54.900Z,99095.17
2023-08-17T19:44:58.150Z,99110.05
2023-08-17T19:50:01.305Z,99102.23
2023-08-17T19:55:05.835Z,99098.33
2023-08-17T20:00:12.720Z,99095.64
2023-08-17T20:05:21.964Z,99090.77
2023-08-17T20:10:25.367Z,99079.23
2023-08-17T20:15:28.573Z,99074.52
2023-08-17T20:20:32.308Z,99065.05
2023-08-17T20:25:36.167Z,99053.88
2023-08-17T20:30:39.384Z,99045.63
2023-08-17T20:35:51.347Z,99049.73
2023-08-17T20:40:54.662Z,99057.27
2023-08-17T20:45:57.995Z,99052.96
2023-08-17T20:51:02.116Z,99054.19
2023-08-17T20:56:05.278Z,99054.64
2023-08-17T21:01:08.456Z,99061.70
2023-08-17T21:06:12.494Z,99066.04
2023-08-17T21:11:15.757Z,99071.77
2023-08-17T21:16:18.957Z,99069.91
2023-08-17T21:21:22.258Z,99070.37
2023-08-17T21:26:25.416Z,99070.70
2023-08-17T21:31:28.695Z,99073.42
2023-08-17T21:36:31.970Z,99078.29
2023-08-17T21:41:35.138Z,99092.55
2023-08-17T21:46:40.471Z,99113.01
2023-08-17T21:51:43.767Z,99114.21
2023-08-17T21:56:46.983Z,99110.26
2023-08-17T22:01:50.162Z,99101.27
2023-08-17T22:06:53.453Z,99103.88
2023-08-17T22:11:57.091Z,99098.59
2023-08-17T22:17:00.242Z,99091.11
2023-08-17T22:22:05.775Z,99083.02
2023-08-17T22:27:09.765Z,99082.02
2023-08-17T22:32:12.962Z,99074.21
2023-08-17T22:37:16.231Z,99072.77
2023-08-17T22:42:19.428Z,99069.44
2023-08-17T22:47:22.582Z,99073.55
2023-08-17T22:52:25.992Z,99074.77
2023-08-17T22:57:29.397Z,99078.54
2023-08-17T23:02:32.955Z,99081.49
2023-08-17T23:07:36.306Z,99076.16
2023-08-17T23:12:39.565Z,99070.86
2023-08-17T23:17:42.781Z,99063.92
2023-08-17T23:22:45.943Z,99063.08
2023-08-17T23:27:49.745Z,99057.61
2023-08-17T23:32:55.936Z,99059.41
2023-08-17T23:37:59.824Z,99062.45
2023-08-17T23:43:03.008Z,99058.48
2023-08-17T23:48:06.589Z,99050.95
2023-08-17T23:53:11.052Z,99043.88
2023-08-17T23:58:14.263Z,99046.83
